Time;durP1;ratioP1;P1;durP2;ratioP2;P2;SDS_P1;SDS_P2;PMS_P1;PMS_P2;Temp;Humidity;BMP_temperature;BMP_pressure;BME280_temperature;BME280_humidity;BME280_pressure;Samples;Min_cycle;Max_cycle;Signal;HPM_P1;HPM_P2
2022/12/16 00:01:24;;;;;;;25.37;13.57;;;;;;;;;;1666967;83;21862;-52
2022/12/16 00:03:52;;;;;;;24.90;14.43;;;;;;;;;;1667439;84;21056;-50
2022/12/16 00:06:18;;;;;;;31.20;16.20;;;;;;;;;;1673870;83;20991;-50
2022/12/16 00:08:45;;;;;;;27.93;15.07;;;;;;;;;;1670656;83;21669;-51
2022/12/16 00:11:11;;;;;;;30.87;17.20;;;;;;;;;;1666954;83;21067;-52
2022/12/16 00:13:39;;;;;;;33.10;18.70;;;;;;;;;;1667728;84;22867;-51
2022/12/16 00:16:12;;;;;;;32.90;19.87;;;;;;;;;;1671653;84;20990;-51
2022/12/16 00:18:38;;;;;;;33.57;19.83;;;;;;;;;;1673776;83;21532;-50
2022/12/16 00:21:04;;;;;;;37.57;21.47;;;;;;;;;;1673770;83;21015;-51
2022/12/16 00:23:30;;;;;;;29.33;17.17;;;;;;;;;;1669227;84;21411;-51
2022/12/16 00:25:56;;;;;;;34.67;18.97;;;;;;;;;;1669218;84;21852;-52
2022/12/16 00:28:23;;;;;;;30.70;17.63;;;;;;;;;;1668217;83;21488;-50
2022/12/16 00:30:51;;;;;;;31.43;18.00;;;;;;;;;;1664161;84;21067;-51
2022/12/16 00:33:17;;;;;;;34.03;20.00;;;;;;;;;;1667963;84;21042;-51
2022/12/16 00:35:44;;;;;;;25.43;16.60;;;;;;;;;;1669989;83;21012;-51
2022/12/16 00:38:10;;;;;;;29.87;16.80;;;;;;;;;;1665511;84;21854;-51
2022/12/16 00:40:37;;;;;;;28.67;16.80;;;;;;;;;;1663830;84;21109;-50
2022/12/16 00:43:03;;;;;;;35.83;19.13;;;;;;;;;;1663755;83;21140;-50
2022/12/16 00:45:29;;;;;;;31.37;18.17;;;;;;;;;;1664316;83;21085;-51
2022/12/16 00:47:55;;;;;;;30.83;18.07;;;;;;;;;;1669150;83;21079;-50
2022/12/16 00:50:21;;;;;;;29.37;18.43;;;;;;;;;;1663624;83;21671;-52
2022/12/16 00:52:48;;;;;;;32.70;18.53;;;;;;;;;;1641115;85;21074;-50
2022/12/16 00:55:15;;;;;;;26.33;17.10;;;;;;;;;;1642407;85;21062;-49
2022/12/16 00:57:42;;;;;;;26.37;16.70;;;;;;;;;;1639423;85;21641;-51
2022/12/16 01:00:11;;;;;;;31.20;16.13;;;;;;;;;;1643956;85;21116;-51
2022/12/16 01:02:39;;;;;;;25.73;15.97;;;;;;;;;;1637360;85;21916;-53
2022/12/16 01:05:09;;;;;;;23.97;14.83;;;;;;;;;;1641433;85;21439;-51
2022/12/16 01:07:36;;;;;;;26.63;15.77;;;;;;;;;;1641625;85;21113;-51
2022/12/16 01:10:05;;;;;;;25.07;14.77;;;;;;;;;;1640116;85;21057;-52
2022/12/16 01:12:32;;;;;;;25.80;15.40;;;;;;;;;;1642771;85;21570;-51
2022/12/16 01:14:59;;;;;;;27.23;15.43;;;;;;;;;;1624219;86;21835;-53
2022/12/16 01:17:27;;;;;;;29.13;18.63;;;;;;;;;;1612651;87;21098;-53
2022/12/16 01:19:53;;;;;;;28.70;16.90;;;;;;;;;;1642821;85;21069;-53
2022/12/16 01:22:20;;;;;;;25.30;16.97;;;;;;;;;;1639814;85;21326;-50
2022/12/16 01:24:46;;;;;;;29.03;18.17;;;;;;;;;;1636435;85;21029;-49
2022/12/16 01:27:13;;;;;;;26.50;15.77;;;;;;;;;;1641617;85;21830;-53
2022/12/16 01:29:39;;;;;;;25.33;14.83;;;;;;;;;;1638997;85;21084;-51
2022/12/16 01:32:05;;;;;;;20.40;14.07;;;;;;;;;;1638516;85;21096;-50
2022/12/16 01:34:32;;;;;;;21.73;13.27;;;;;;;;;;1641613;85;21583;-50
2022/12/16 01:36:58;;;;;;;22.27;13.90;;;;;;;;;;1637996;85;21106;-49
2022/12/16 01:39:26;;;;;;;24.30;14.70;;;;;;;;;;1642713;85;21859;-49
2022/12/16 01:41:52;;;;;;;23.80;14.17;;;;;;;;;;1635678;85;21052;-49
2022/12/16 01:44:20;;;;;;;27.63;15.37;;;;;;;;;;1641246;85;21546;-49
2022/12/16 01:46:55;;;;;;;24.40;15.93;;;;;;;;;;1640493;85;21359;-50
2022/12/16 01:49:24;;;;;;;23.45;15.18;;;;;;;;;;1643541;85;21209;-49
2022/12/16 01:51:51;;;;;;;23.73;15.70;;;;;;;;;;1667284;83;21981;-50
2022/12/16 01:54:27;;;;;;;25.60;15.13;;;;;;;;;;1665554;84;21109;-49
2022/12/16 01:56:55;;;;;;;21.80;14.90;;;;;;;;;;1666747;83;21077;-50
2022/12/16 01:59:21;;;;;;;22.77;15.03;;;;;;;;;;1667391;84;21362;-49
2022/12/16 02:01:47;;;;;;;24.43;15.17;;;;;;;;;;1666892;84;21081;-49
2022/12/16 02:04:14;;;;;;;27.93;17.40;;;;;;;;;;1670644;84;23034;-50
2022/12/16 02:06:40;;;;;;;25.53;15.73;;;;;;;;;;1664160;84;21623;-50
2022/12/16 02:09:09;;;;;;;23.23;14.73;;;;;;;;;;1668711;83;21057;-50
2022/12/16 02:12:00;;;;;;;24.33;15.37;;;;;;;;;;1665960;84;21066;-51
2022/12/16 02:14:49;;;;;;;27.23;16.30;;;;;;;;;;1666031;83;21164;-52
2022/12/16 02:17:46;;;;;;;27.13;17.53;;;;;;;;;;1595840;83;21870;-50
2022/12/16 02:20:43;;;;;;;30.10;17.47;;;;;;;;;;1664804;84;21551;-51
2022/12/16 02:23:22;;;;;;;30.33;17.30;;;;;;;;;;1670668;84;21504;-50
2022/12/16 02:26:14;;;;;;;30.97;19.43;;;;;;;;;;1669245;84;21061;-51
2022/12/16 02:29:13;;;;;;;25.10;17.13;;;;;;;;;;1663584;83;21081;-50
2022/12/16 02:31:59;;;;;;;29.03;17.03;;;;;;;;;;1665372;83;23343;-51
2022/12/16 02:34:38;;;;;;;24.20;16.27;;;;;;;;;;1667585;84;21558;-51
2022/12/16 02:37:20;;;;;;;26.20;17.27;;;;;;;;;;1666280;83;21062;-51
2022/12/16 02:39:52;;;;;;;27.37;17.27;;;;;;;;;;1663159;84;21632;-51
2022/12/16 02:42:22;;;;;;;27.57;16.23;;;;;;;;;;1668382;83;21089;-51
2022/12/16 02:45:00;;;;;;;27.77;17.47;;;;;;;;;;1671435;83;21402;-51
2022/12/16 02:47:27;;;;;;;25.90;15.87;;;;;;;;;;1669312;83;21085;-51
2022/12/16 02:49:54;;;;;;;25.80;15.23;;;;;;;;;;1670804;83;21377;-51
2022/12/16 02:52:22;;;;;;;32.70;19.53;;;;;;;;;;1649918;84;21092;-51
2022/12/16 02:54:50;;;;;;;28.57;17.00;;;;;;;;;;1621004;86;21075;-51
2022/12/16 02:57:38;;;;;;;31.23;18.83;;;;;;;;;;1626481;86;21878;-50
2022/12/16 03:00:11;;;;;;;31.10;18.97;;;;;;;;;;1624710;86;20982;-51
2022/12/16 03:02:56;;;;;;;33.42;20.25;;;;;;;;;;1672660;84;21033;-51
2022/12/16 03:05:29;;;;;;;31.48;17.60;;;;;;;;;;1626887;86;21023;-51
2022/12/16 03:07:56;;;;;;;35.07;19.00;;;;;;;;;;1671198;84;21029;-51
2022/12/16 03:10:26;;;;;;;35.17;19.57;;;;;;;;;;1631808;84;21586;-51
2022/12/16 03:12:52;;;;;;;30.33;18.27;;;;;;;;;;1673735;83;21022;-50
2022/12/16 03:17:36;;;;;;;34.03;19.47;;;;;;;;;;1778036;78;27357;-52
2022/12/16 03:20:06;;;;;;;42.77;21.43;;;;;;;;;;1749790;80;21058;-52
2022/12/16 03:22:33;;;;;;;34.20;20.37;;;;;;;;;;1755743;80;21460;-52
2022/12/16 03:24:59;;;;;;;39.10;23.23;;;;;;;;;;1748725;80;21527;-51
2022/12/16 03:27:32;;;;;;;37.90;22.43;;;;;;;;;;1756947;80;20969;-52
2022/12/16 03:30:05;;;;;;;40.63;23.10;;;;;;;;;;1753968;80;21856;-52
2022/12/16 03:32:56;;;;;;;34.03;20.47;;;;;;;;;;1751621;80;20998;-52
2022/12/16 03:35:39;;;;;;;30.63;19.73;;;;;;;;;;1744670;80;21874;-52
2022/12/16 03:38:06;;;;;;;37.87;21.93;;;;;;;;;;1749082;80;21057;-52
2022/12/16 03:40:32;;;;;;;33.10;21.10;;;;;;;;;;1749434;80;21033;-52
2022/12/16 03:43:00;;;;;;;33.33;19.43;;;;;;;;;;1751485;80;22197;-52
2022/12/16 03:45:28;;;;;;;32.90;19.33;;;;;;;;;;1724088;81;21168;-52
2022/12/16 03:47:56;;;;;;;32.50;19.20;;;;;;;;;;1712610;81;21825;-52
2022/12/16 03:50:27;;;;;;;25.87;16.57;;;;;;;;;;1719320;81;21037;-52
2022/12/16 03:52:53;;;;;;;31.30;18.73;;;;;;;;;;1704913;81;21558;-51
2022/12/16 03:55:20;;;;;;;28.27;18.27;;;;;;;;;;1717032;81;21038;-51
2022/12/16 03:57:46;;;;;;;31.13;20.13;;;;;;;;;;1710276;81;21061;-51
2022/12/16 04:00:14;;;;;;;28.77;18.30;;;;;;;;;;1708389;81;22915;-51
2022/12/16 04:02:40;;;;;;;27.27;16.57;;;;;;;;;;1710867;81;21182;-51
2022/12/16 04:05:07;;;;;;;28.47;17.30;;;;;;;;;;1712657;81;21446;-52
2022/12/16 04:07:34;;;;;;;26.77;17.00;;;;;;;;;;1712512;81;21510;-51
2022/12/16 04:10:00;;;;;;;26.67;17.37;;;;;;;;;;1718627;81;21115;-51
2022/12/16 04:26:16;;;;;;;22.80;14.58;;;;;;;;;;1701992;82;21867;-52
2022/12/16 04:28:42;;;;;;;25.27;17.10;;;;;;;;;;1697065;82;21105;-52
2022/12/16 04:31:10;;;;;;;22.77;14.83;;;;;;;;;;1706126;82;21051;-52
